createdAt,value
2023-04-08T00:00:43.300Z,99265.63
2023-04-08T00:03:46.931Z,99261.94
2023-04-08T00:06:50.524Z,99258.00
2023-04-08T00:09:56.854Z,99257.69
2023-04-08T00:13:01.142Z,99264.78
2023-04-08T00:16:05.656Z,99260.69
2023-04-08T00:19:09.067Z,99275.31
2023-04-08T00:22:12.675Z,99275.09
2023-04-08T00:25:17.691Z,99276.25
2023-04-08T00:28:21.347Z,99278.94
2023-04-08T00:31:24.929Z,99279.91
2023-04-08T00:34:28.620Z,99285.97
2023-04-08T00:37:32.845Z,99283.69
2023-04-08T00:40:40.584Z,99284.25
2023-04-08T00:43:44.440Z,99283.09
2023-04-08T00:46:48.668Z,99292.28
2023-04-08T00:49:52.380Z,99289.16
2023-04-08T00:52:55.737Z,99285.94
2023-04-08T00:56:01.625Z,99294.25
2023-04-08T00:59:05.463Z,99304.50
2023-04-08T01:02:20.336Z,99308.38
2023-04-08T01:05:32.109Z,99306.59
2023-04-08T01:08:39.536Z,99303.97
2023-04-08T01:11:47.702Z,99310.22
2023-04-08T01:14:56.888Z,99315.28
2023-04-08T01:18:02.584Z,99320.13
2023-04-08T01:21:08.793Z,99315.13
2023-04-08T01:24:19.532Z,99324.56
2023-04-08T01:27:25.793Z,99309.91
2023-04-08T01:30:31.707Z,99311.66
2023-04-08T01:33:37.673Z,99305.69
2023-04-08T01:36:43.614Z,99309.25
2023-04-08T01:39:48.606Z,99310.75
2023-04-08T01:42:56.009Z,99311.75
2023-04-08T01:46:01.201Z,99319.56
2023-04-08T01:49:06.129Z,99318.91
2023-04-08T01:52:12.060Z,99318.31
2023-04-08T01:55:15.965Z,99328.28
2023-04-08T01:58:23.241Z,99328.81
2023-04-08T02:01:30.983Z,99326.91
2023-04-08T02:04:35.688Z,99315.34
2023-04-08T02:07:39.451Z,99326.50
2023-04-08T02:10:43.003Z,99326.16
2023-04-08T02:13:47.914Z,99332.22
2023-04-08T02:16:55.333Z,99331.16
2023-04-08T02:20:04.920Z,99334.06
2023-04-08T02:23:13.507Z,99334.03
2023-04-08T02:26:19.082Z,99338.38
2023-04-08T02:29:26.157Z,99342.47
2023-04-08T02:32:36.916Z,99332.94
2023-04-08T02:35:43.776Z,99344.88
2023-04-08T02:38:50.597Z,99338.38
2023-04-08T02:41:54.112Z,99342.78
2023-04-08T02:45:00.206Z,99345.91
2023-04-08T02:48:03.702Z,99332.28
2023-04-08T02:51:07.404Z,99345.06
2023-04-08T02:54:11.000Z,99347.50
2023-04-08T02:57:14.663Z,99346.97
2023-04-08T03:00:19.915Z,99354.91
2023-04-08T03:03:28.099Z,99361.66
2023-04-08T03:06:31.852Z,99361.59
2023-04-08T03:09:35.586Z,99369.81
2023-04-08T03:12:39.470Z,99374.53
2023-04-08T03:15:44.758Z,99371.22
2023-04-08T03:18:48.581Z,99372.06
2023-04-08T03:21:52.498Z,99371.91
2023-04-08T03:24:55.965Z,99371.06
2023-04-08T03:28:00.206Z,99370.13
2023-04-08T03:31:06.148Z,99378.69
2023-04-08T03:34:10.331Z,99387.91
2023-04-08T03:37:13.764Z,99389.47
2023-04-08T03:40:17.080Z,99394.94
2023-04-08T03:43:22.207Z,99403.75
2023-04-08T03:46:27.230Z,99406.31
2023-04-08T03:49:30.591Z,99412.09
2023-04-08T03:52:34.151Z,99412.28
2023-04-08T03:55:37.601Z,99411.44
2023-04-08T03:58:40.949Z,99411.53
2023-04-08T04:01:46.555Z,99419.13
2023-04-08T04:04:50.078Z,99411.81
2023-04-08T04:07:53.516Z,99418.81
2023-04-08T04:10:57.011Z,99425.72
2023-04-08T04:14:00.304Z,99426.22
2023-04-08T04:17:05.290Z,99426.75
2023-04-08T04:20:09.740Z,99424.88
2023-04-08T04:23:13.318Z,99429.94
2023-04-08T04:26:16.826Z,99429.25
2023-04-08T04:29:20.265Z,99441.00
2023-04-08T04:32:25.139Z,99443.28
2023-04-08T04:35:28.740Z,99445.28
2023-04-08T04:38:32.247Z,99449.84
2023-04-08T04:41:40.572Z,99455.63
2023-04-08T04:44:44.730Z,99458.41
2023-04-08T04:47:49.555Z,99465.31
2023-04-08T04:50:56.754Z,99460.34
2023-04-08T04:54:00.201Z,99467.66
2023-04-08T04:57:04.823Z,99469.38
2023-04-08T05:00:09.771Z,99473.97
2023-04-08T05:03:14.782Z,99481.44
2023-04-08T05:06:20.686Z,99487.09
2023-04-08T05:09:24.077Z,99492.44
2023-04-08T05:12:28.383Z,99490.63
2023-04-08T05:15:36.226Z,99501.91
2023-04-08T05:18:41.412Z,99501.69
2023-04-08T05:21:44.714Z,99507.47
2023-04-08T05:24:48.042Z,99505.88
2023-04-08T05:27:51.470Z,99505.81
2023-04-08T05:30:57.757Z,99510.22
2023-04-08T05:34:02.918Z,99515.38
2023-04-08T05:37:06.793Z,99510.09
2023-04-08T05:40:11.577Z,99511.75
2023-04-08T05:43:17.252Z,99505.34
2023-04-08T05:46:20.680Z,99506.09
2023-04-08T05:49:25.477Z,99507.50
2023-04-08T05:52:28.759Z,99512.13
2023-04-08T05:55:32.281Z,99524.81
2023-04-08T05:58:36.208Z,99520.59
2023-04-08T06:01:39.682Z,99519.81
2023-04-08T06:04:44.671Z,99527.88
2023-04-08T06:07:47.982Z,99531.06
2023-04-08T06:10:51.653Z,99524.25
2023-04-08T06:13:55.428Z,99532.03
2023-04-08T06:16:58.814Z,99538.53
2023-04-08T06:20:04.679Z,99536.19
2023-04-08T06:23:08.199Z,99531.03
2023-04-08T06:26:12.115Z,99543.22
2023-04-08T06:29:15.984Z,99537.44
2023-04-08T06:32:19.345Z,99542.16
2023-04-08T06:35:24.144Z,99552.84
2023-04-08T06:38:28.801Z,99548.94
2023-04-08T06:41:33.863Z,99559.88
2023-04-08T06:44:51.290Z,99570.09
2023-04-08T06:47:56.520Z,99572.47
2023-04-08T06:51:03.155Z,99572.72
2023-04-08T06:54:06.775Z,99580.56
2023-04-08T06:57:10.518Z,99578.63
2023-04-08T07:00:14.722Z,99582.63
2023-04-08T07:03:18.286Z,99582.50
2023-04-08T07:06:23.150Z,99577.22
2023-04-08T07:09:26.570Z,99589.78
2023-04-08T07:12:30.321Z,99595.63
2023-04-08T07:15:33.664Z,99591.00
2023-04-08T07:18:37.625Z,99595.25
2023-04-08T07:21:43.296Z,99593.44
2023-04-08T07:24:49.879Z,99587.31
2023-04-08T07:27:53.684Z,99594.13
2023-04-08T07:31:11.793Z,99597.47
2023-04-08T07:34:15.191Z,99604.00
2023-04-08T07:37:20.097Z,99602.97
2023-04-08T07:40:23.585Z,99607.03
2023-04-08T07:43:27.988Z,99601.03
2023-04-08T07:46:31.772Z,99604.69
2023-04-08T07:49:35.461Z,99606.47
2023-04-08T07:52:40.327Z,99609.34
2023-04-08T07:55:43.907Z,99612.31
2023-04-08T07:58:48.986Z,99609.81
2023-04-08T08:01:53.759Z,99612.31
2023-04-08T08:04:58.048Z,99612.63
2023-04-08T08:08:02.748Z,99614.91
2023-04-08T08:11:06.362Z,99616.38
2023-04-08T08:14:11.815Z,99627.88
2023-04-08T08:17:15.381Z,99629.38
2023-04-08T08:20:18.972Z,99624.31
2023-04-08T08:23:23.819Z,99633.94
2023-04-08T08:26:27.721Z,99640.00
2023-04-08T08:29:31.436Z,99634.72
2023-04-08T08:32:34.941Z,99640.94
2023-04-08T08:35:38.538Z,99643.88
2023-04-08T08:38:43.675Z,99645.75
2023-04-08T08:41:48.184Z,99640.78
2023-04-08T08:44:56.039Z,99653.38
2023-04-08T08:48:02.234Z,99655.94
2023-04-08T08:51:10.158Z,99657.78
2023-04-08T08:54:20.944Z,99657.72
2023-04-08T08:57:24.494Z,99656.78
2023-04-08T09:00:34.950Z,99667.09
2023-04-08T09:03:38.753Z,99669.88
2023-04-08T09:06:42.456Z,99666.19
2023-04-08T09:09:55.592Z,99677.31
2023-04-08T09:12:59.251Z,99680.47
2023-04-08T09:16:05.270Z,99686.19
2023-04-08T09:19:11.786Z,99688.31
2023-04-08T09:22:15.161Z,99679.28
2023-04-08T09:25:30.372Z,99695.78
2023-04-08T09:28:34.100Z,99702.25
2023-04-08T09:31:41.526Z,99702.13
2023-04-08T09:34:45.005Z,99700.19
2023-04-08T09:37:48.600Z,99700.97
2023-04-08T09:40:54.718Z,99691.31
2023-04-08T09:44:00.907Z,99686.09
2023-04-08T09:47:11.445Z,99694.25
2023-04-08T09:50:18.169Z,99696.56
2023-04-08T09:53:30.189Z,99701.63
2023-04-08T09:56:42.982Z,99698.38
2023-04-08T09:59:53.871Z,99693.69
2023-04-08T10:03:08.565Z,99682.41
2023-04-08T10:06:13.293Z,99686.03
2023-04-08T10:09:16.918Z,99688.97
2023-04-08T10:12:22.248Z,99690.97
2023-04-08T10:15:27.667Z,99693.59
2023-04-08T10:18:34.597Z,99696.69
2023-04-08T10:21:40.048Z,99703.84
2023-04-08T10:25:25.657Z,99691.91
2023-04-08T10:28:30.567Z,99709.09
2023-04-08T10:31:42.117Z,99698.94
2023-04-08T10:34:54.884Z,99707.97
2023-04-08T10:37:59.338Z,99700.69
2023-04-08T10:41:02.928Z,99705.31
2023-04-08T10:44:17.514Z,99701.41
2023-04-08T10:47:28.659Z,99700.63
2023-04-08T10:50:32.615Z,99701.28
2023-04-08T10:53:37.910Z,99709.69
2023-04-08T10:56:46.991Z,99694.25
2023-04-08T10:59:52.552Z,99696.47
2023-04-08T11:03:01.796Z,99697.53
2023-04-08T11:06:06.307Z,99707.47
2023-04-08T11:09:09.906Z,99703.56
2023-04-08T11:12:15.339Z,99706.81
2023-04-08T11:15:21.043Z,99707.13
2023-04-08T11:18:25.053Z,99696.19
2023-04-08T11:21:29.817Z,99698.66
2023-04-08T11:24:33.684Z,99692.44
2023-04-08T11:27:37.709Z,99698.13
2023-04-08T11:30:43.474Z,99690.72
2023-04-08T11:33:49.727Z,99690.81
2023-04-08T11:36:53.767Z,99691.00
2023-04-08T11:39:57.737Z,99687.69
2023-04-08T11:43:01.478Z,99688.22
2023-04-08T11:46:12.955Z,99683.13
2023-04-08T11:49:17.316Z,99673.44
2023-04-08T11:52:22.879Z,99686.94
2023-04-08T11:55:28.355Z,99679.72
2023-04-08T11:58:32.053Z,99683.03
2023-04-08T12:01:36.999Z,99671.44
2023-04-08T12:04:40.501Z,99679.97
2023-04-08T12:07:44.338Z,99686.72
2023-04-08T12:10:47.719Z,99686.38
2023-04-08T12:13:52.946Z,99687.00
2023-04-08T12:16:59.140Z,99678.78
2023-04-08T12:20:02.790Z,99682.44
2023-04-08T12:23:06.460Z,99679.69
2023-04-08T12:26:10.492Z,99682.16
2023-04-08T12:29:13.836Z,99674.38
2023-04-08T12:32:21.773Z,99677.84
2023-04-08T12:35:25.777Z,99680.00
2023-04-08T12:38:29.382Z,99689.72
2023-04-08T12:41:33.309Z,99688.41
2023-04-08T12:44:36.948Z,99687.97
2023-04-08T12:47:41.925Z,99683.09
2023-04-08T12:50:48.465Z,99685.81
2023-04-08T12:53:51.949Z,99677.59
2023-04-08T12:56:58.151Z,99679.09
2023-04-08T13:00:01.700Z,99681.19
2023-04-08T13:03:08.433Z,99680.34
2023-04-08T13:06:12.268Z,99680.19
2023-04-08T13:09:16.432Z,99682.81
2023-04-08T13:12:20.008Z,99685.47
2023-04-08T13:15:24.031Z,99687.41
2023-04-08T13:18:29.899Z,99686.88
2023-04-08T13:21:33.587Z,99688.84
2023-04-08T13:24:38.600Z,99688.78
2023-04-08T13:27:43.332Z,99691.06
2023-04-08T13:30:47.784Z,99692.72
2023-04-08T13:33:55.279Z,99694.13
2023-04-08T13:36:59.653Z,99689.69
2023-04-08T13:40:03.423Z,99687.72
2023-04-08T13:43:07.187Z,99692.38
2023-04-08T13:46:10.873Z,99696.84
2023-04-08T13:49:17.494Z,99697.59
2023-04-08T13:52:21.156Z,99700.78
2023-04-08T13:55:24.647Z,99697.22
2023-04-08T13:58:28.128Z,99700.84
2023-04-08T14:01:31.960Z,99694.25
2023-04-08T14:04:36.897Z,99693.53
2023-04-08T14:07:40.481Z,99694.84
2023-04-08T14:10:44.006Z,99695.47
2023-04-08T14:13:47.596Z,99691.75
2023-04-08T14:16:51.325Z,99683.22
2023-04-08T14:19:56.617Z,99683.06
2023-04-08T14:23:00.150Z,99680.84
2023-04-08T14:26:03.682Z,99681.66
2023-04-08T14:29:08.499Z,99673.69
2023-04-08T14:32:12.593Z,99683.59
2023-04-08T14:35:17.717Z,99683.00
2023-04-08T14:38:23.151Z,99684.53
2023-04-08T14:41:27.374Z,99685.38
2023-04-08T14:44:31.372Z,99680.50
2023-04-08T14:47:35.481Z,99687.97
2023-04-08T14:50:40.872Z,99684.09
2023-04-08T14:53:46.840Z,99691.19
2023-04-08T14:56:50.499Z,99694.59
2023-04-08T14:59:54.353Z,99683.16
2023-04-08T15:02:58.178Z,99688.47
2023-04-08T15:06:09.371Z,99686.13
2023-04-08T15:09:12.928Z,99689.31
2023-04-08T15:12:16.888Z,99688.59
2023-04-08T15:15:20.622Z,99686.69
2023-04-08T15:18:24.039Z,99691.97
2023-04-08T15:21:28.926Z,99692.72
2023-04-08T15:24:32.567Z,99689.13
2023-04-08T15:27:36.807Z,99685.63
2023-04-08T15:30:40.244Z,99688.22
2023-04-08T15:33:47.565Z,99694.22
2023-04-08T15:36:53.302Z,99692.03
2023-04-08T15:39:56.817Z,99689.69
2023-04-08T15:43:00.491Z,99695.78
2023-04-08T15:46:03.875Z,99700.34
2023-04-08T15:49:08.777Z,99702.50
2023-04-08T15:52:13.686Z,99698.81
2023-04-08T15:55:17.776Z,99706.38
2023-04-08T15:58:21.364Z,99694.97
2023-04-08T16:01:24.888Z,99703.09
2023-04-08T16:04:28.357Z,99700.88
2023-04-08T16:07:33.351Z,99700.00
2023-04-08T16:10:37.409Z,99701.47
2023-04-08T16:13:42.548Z,99695.63
2023-04-08T16:16:47.364Z,99696.59
2023-04-08T16:19:52.486Z,99693.84
2023-04-08T16:22:59.743Z,99698.38
2023-04-08T16:26:03.154Z,99701.97
2023-04-08T16:29:06.639Z,99706.78
2023-04-08T16:32:10.330Z,99703.41
2023-04-08T16:35:14.501Z,99706.94
2023-04-08T16:38:19.922Z,99701.81
2023-04-08T16:41:23.501Z,99706.78
2023-04-08T16:44:27.042Z,99711.16
2023-04-08T16:47:30.613Z,99714.00
2023-04-08T16:50:34.117Z,99716.97
2023-04-08T16:53:42.715Z,99724.50
2023-04-08T16:56:46.547Z,99722.66
2023-04-08T16:59:52.747Z,99724.09
2023-04-08T17:02:57.752Z,99720.84
2023-04-08T17:06:07.560Z,99718.72
2023-04-08T17:09:12.376Z,99729.81
2023-04-08T17:12:18.804Z,99726.72
2023-04-08T17:15:22.291Z,99725.44
2023-04-08T17:18:25.663Z,99741.06
2023-04-08T17:21:29.420Z,99741.47
2023-04-08T17:24:40.681Z,99746.06
2023-04-08T17:27:44.013Z,99749.66
2023-04-08T17:30:47.758Z,99742.78
2023-04-08T17:33:52.176Z,99748.91
2023-04-08T17:36:55.802Z,99747.53
2023-04-08T17:40:00.678Z,99748.56
2023-04-08T17:43:04.099Z,99745.69
2023-04-08T17:46:07.782Z,99752.72
2023-04-08T17:49:14.698Z,99762.53
2023-04-08T17:52:18.076Z,99763.31
2023-04-08T17:55:22.994Z,99774.50
2023-04-08T17:58:27.825Z,99766.50
2023-04-08T18:01:34.604Z,99761.88
2023-04-08T18:04:38.385Z,99765.25
2023-04-08T18:07:41.747Z,99766.41
2023-04-08T18:10:46.894Z,99759.97
2023-04-08T18:13:50.978Z,99765.56
2023-04-08T18:16:54.624Z,99766.88
2023-04-08T18:19:59.611Z,99774.16
2023-04-08T18:23:04.611Z,99769.47
2023-04-08T18:26:10.631Z,99777.41
2023-04-08T18:29:14.336Z,99782.50
2023-04-08T18:32:18.033Z,99785.41
2023-04-08T18:35:21.612Z,99782.81
2023-04-08T18:38:24.993Z,99782.94
2023-04-08T18:41:30.182Z,99781.38
2023-04-08T18:44:33.507Z,99787.75
2023-04-08T18:47:37.644Z,99786.81
2023-04-08T18:50:41.503Z,99792.19
2023-04-08T18:53:45.000Z,99788.47
2023-04-08T18:56:50.626Z,99783.47
2023-04-08T18:59:53.983Z,99786.97
2023-04-08T19:02:58.524Z,99780.88
2023-04-08T19:06:06.845Z,99799.41
2023-04-08T19:09:10.160Z,99801.09
2023-04-08T19:12:14.957Z,99809.00
2023-04-08T19:15:18.697Z,99795.00
2023-04-08T19:18:22.479Z,99796.91
2023-04-08T19:21:27.379Z,99791.16
2023-04-08T19:24:30.955Z,99796.56
2023-04-08T19:27:35.997Z,99798.31
2023-04-08T19:30:39.978Z,99787.28
2023-04-08T19:33:43.754Z,99780.16
2023-04-08T19:36:48.331Z,99781.69
2023-04-08T19:39:52.482Z,99785.41
2023-04-08T19:42:58.417Z,99783.00
2023-04-08T19:46:02.625Z,99770.94
2023-04-08T19:49:06.466Z,99770.78
2023-04-08T19:52:10.117Z,99778.53
2023-04-08T19:55:13.496Z,99774.69
2023-04-08T19:58:19.005Z,99774.25
2023-04-08T20:01:22.372Z,99778.19
2023-04-08T20:04:26.078Z,99776.91
2023-04-08T20:07:29.585Z,99779.59
2023-04-08T20:10:33.149Z,99779.94
2023-04-08T20:13:38.226Z,99787.53
2023-04-08T20:16:41.752Z,99773.25
2023-04-08T20:19:45.183Z,99781.78
2023-04-08T20:22:48.786Z,99776.84
2023-04-08T20:25:52.344Z,99779.41
2023-04-08T20:28:59.039Z,99778.22
2023-04-08T20:32:02.734Z,99769.56
2023-04-08T20:35:07.276Z,99770.88
2023-04-08T20:38:10.687Z,99772.66
2023-04-08T20:41:19.372Z,99779.94
2023-04-08T20:44:24.127Z,99780.94
2023-04-08T20:47:27.591Z,99787.91
2023-04-08T20:50:30.981Z,99788.06
2023-04-08T20:53:35.024Z,99791.53
2023-04-08T20:56:38.907Z,99790.66
2023-04-08T20:59:43.683Z,99790.25
2023-04-08T21:02:48.141Z,99785.75
2023-04-08T21:05:52.668Z,99785.59
2023-04-08T21:08:57.361Z,99784.16
2023-04-08T21:12:01.404Z,99795.34
2023-04-08T21:15:06.968Z,99789.72
2023-04-08T21:18:11.265Z,99789.13
2023-04-08T21:21:15.494Z,99791.63
2023-04-08T21:24:18.985Z,99793.59
2023-04-08T21:27:22.507Z,99788.28
2023-04-08T21:30:27.324Z,99791.19
2023-04-08T21:33:30.964Z,99792.09
2023-04-08T21:36:34.374Z,99791.38
2023-04-08T21:39:38.117Z,99793.97
2023-04-08T21:42:42.259Z,99791.72
2023-04-08T21:45:47.193Z,99792.91
2023-04-08T21:48:50.765Z,99794.47
2023-04-08T21:51:54.424Z,99792.28
2023-04-08T21:54:58.307Z,99796.19
2023-04-08T21:58:05.843Z,99786.22
2023-04-08T22:01:10.648Z,99785.75
2023-04-08T22:04:14.159Z,99788.19
2023-04-08T22:07:17.932Z,99787.50
2023-04-08T22:10:21.752Z,99780.38
2023-04-08T22:13:25.492Z,99783.97
2023-04-08T22:16:30.305Z,99782.53
2023-04-08T22:19:33.969Z,99784.97
2023-04-08T22:22:37.811Z,99782.47
2023-04-08T22:25:41.711Z,99779.38
2023-04-08T22:28:46.169Z,99784.44
2023-04-08T22:31:52.836Z,99777.50
2023-04-08T22:34:57.058Z,99771.28
2023-04-08T22:38:01.141Z,99778.34
2023-04-08T22:41:05.109Z,99775.50
2023-04-08T22:44:08.981Z,99775.69
2023-04-08T22:47:14.563Z,99775.09
2023-04-08T22:50:18.380Z,99772.53
2023-04-08T22:53:21.987Z,99778.28
2023-04-08T22:56:26.593Z,99773.31
2023-04-08T22:59:30.405Z,99778.03
2023-04-08T23:02:35.706Z,99776.97
2023-04-08T23:05:39.158Z,99772.56
2023-04-08T23:08:48.843Z,99770.88
2023-04-08T23:11:53.279Z,99771.91
2023-04-08T23:14:56.859Z,99769.50
2023-04-08T23:18:01.672Z,99775.69
2023-04-08T23:21:05.211Z,99770.75
2023-04-08T23:24:08.583Z,99771.38
2023-04-08T23:27:11.982Z,99765.69
2023-04-08T23:30:15.628Z,99768.19
2023-04-08T23:33:20.371Z,99771.53
2023-04-08T23:36:24.132Z,99768.41
2023-04-08T23:39:27.557Z,99764.06
2023-04-08T23:42:31.121Z,99768.69
2023-04-08T23:45:35.083Z,99765.81
2023-04-08T23:48:39.982Z,99766.44
2023-04-08T23:51:43.524Z,99767.72
2023-04-08T23:54:51.270Z,99769.88
2023-04-08T23:57:57.045Z,99766.81
